Time;durP1;ratioP1;P1;durP2;ratioP2;P2;SDS_P1;SDS_P2;PMS_P1;PMS_P2;Temp;Humidity;BMP_temperature;BMP_pressure;BME280_temperature;BME280_humidity;BME280_pressure;Samples;Min_cycle;Max_cycle;Signal;HPM_P1;HPM_P2
2023/09/26 00:00:55;;;;;;;;;11.75;11.75;;;;;19.40;78.52;101626.13;5039528;28;45300;-73
2023/09/26 00:03:20;;;;;;;;;12.50;12.50;;;;;19.20;78.55;101592.06;5039178;28;45430;-73
2023/09/26 00:05:46;;;;;;;;;11.00;11.00;;;;;19.23;78.60;101591.88;5056226;28;45225;-73
2023/09/26 00:08:12;;;;;;;;;9.50;8.50;;;;;19.37;78.73;101628.16;5046272;28;45594;-73
2023/09/26 00:10:37;;;;;;;;;11.50;11.00;;;;;19.31;78.76;101614.94;5038881;28;45367;-73
2023/09/26 00:13:03;;;;;;;;;12.00;10.50;;;;;19.35;78.66;101622.81;5021750;28;45367;-73
2023/09/26 00:15:28;;;;;;;;;13.50;13.50;;;;;19.25;78.93;101619.72;5039414;28;45385;-74
2023/09/26 00:17:54;;;;;;;;;7.00;7.00;;;;;19.17;78.75;101594.06;5051675;28;46451;-73
2023/09/26 00:20:28;;;;;;;;;10.75;9.00;;;;;19.34;79.29;101625.59;5052873;28;45400;-73
2023/09/26 00:22:56;;;;;;;;;11.75;10.00;;;;;19.07;78.88;101580.16;5039284;28;45580;-73
2023/09/26 00:25:23;;;;;;;;;8.50;8.50;;;;;19.30;78.89;101621.34;5039137;28;45312;-73
2023/09/26 00:27:49;;;;;;;;;11.50;11.00;;;;;19.28;78.83;101621.41;5037505;28;47101;-73
2023/09/26 00:30:15;;;;;;;;;10.50;10.50;;;;;19.07;78.82;101590.97;5056982;28;45469;-73
2023/09/26 00:32:40;;;;;;;;;9.00;8.25;;;;;19.06;78.63;101590.13;5039596;28;45341;-73
2023/09/26 00:35:10;;;;;;;;;6.75;6.00;;;;;19.21;78.62;101615.47;5050466;28;45437;-73
2023/09/26 00:37:35;;;;;;;;;11.25;10.00;;;;;19.19;79.00;101608.38;5052143;28;46706;-73
2023/09/26 00:40:01;;;;;;;;;12.50;11.50;;;;;19.00;78.73;101576.03;5047691;28;46360;-73
2023/09/26 00:42:26;;;;;;;;;10.50;10.25;;;;;19.05;78.23;101582.94;5026347;28;45440;-73
2023/09/26 00:44:52;;;;;;;;;9.25;7.25;;;;;19.27;78.18;101622.34;5056231;28;45458;-73
2023/09/26 00:47:17;;;;;;;;;9.50;8.00;;;;;19.05;78.09;101584.78;5021475;28;47040;-73
2023/09/26 00:49:43;;;;;;;;;8.75;8.75;;;;;19.16;78.26;101612.13;5039974;28;45368;-73
2023/09/26 00:52:09;;;;;;;;;10.75;8.25;;;;;18.97;78.18;101568.94;5042785;28;45320;-73
2023/09/26 00:54:35;;;;;;;;;9.75;7.00;;;;;19.29;78.17;101617.72;5054824;28;45308;-73
2023/09/26 00:57:03;;;;;;;;;8.00;7.00;;;;;19.29;78.02;101609.59;5024293;28;47079;-73
2023/09/26 00:59:28;;;;;;;;;8.50;7.50;;;;;19.13;77.63;101582.53;5038620;28;45704;-73
2023/09/26 01:01:54;;;;;;;;;7.75;7.75;;;;;19.16;77.44;101598.59;5037062;28;45458;-73
2023/09/26 01:04:22;;;;;;;;;11.00;11.00;;;;;19.16;76.98;101601.31;5027342;28;45696;-73
2023/09/26 01:06:47;;;;;;;;;8.25;8.25;;;;;19.21;77.55;101601.03;5050755;28;45430;-73
2023/09/26 01:09:13;;;;;;;;;8.75;8.00;;;;;19.30;76.76;101611.38;5038557;28;45352;-73
2023/09/26 01:11:39;;;;;;;;;7.00;7.00;;;;;19.11;76.92;101576.34;5040578;28;45475;-73
2023/09/26 01:14:04;;;;;;;;;7.75;7.00;;;;;19.27;76.79;101607.97;5037352;28;45425;-73
2023/09/26 01:16:30;;;;;;;;;6.00;6.00;;;;;19.29;76.50;101606.03;5039661;28;45905;-73
2023/09/26 01:18:58;;;;;;;;;8.50;8.25;;;;;19.31;76.54;101598.69;5057957;28;45415;-73
2023/09/26 01:21:23;;;;;;;;;5.00;4.00;;;;;19.13;76.40;101574.41;5044584;28;45399;-73
2023/09/26 01:23:57;;;;;;;;;8.50;8.00;;;;;19.35;76.13;101600.28;5040528;28;45339;-73
2023/09/26 01:26:23;;;;;;;;;8.50;8.50;;;;;19.16;76.11;101574.25;5041732;28;45495;-73
2023/09/26 01:28:49;;;;;;;;;8.00;7.50;;;;;19.32;75.88;101595.91;5026748;28;45639;-73
2023/09/26 01:31:14;;;;;;;;;7.00;6.50;;;;;19.19;75.78;101570.47;5055073;28;45449;-73
2023/09/26 01:33:40;;;;;;;;;7.25;7.00;;;;;19.18;75.54;101577.75;5041782;28;45366;-73
2023/09/26 01:36:06;;;;;;;;;7.50;7.50;;;;;19.36;75.16;101602.91;5050700;28;46312;-73
2023/09/26 01:38:31;;;;;;;;;8.75;7.50;;;;;19.23;75.59;101570.22;5040360;28;46111;-73
2023/09/26 01:40:56;;;;;;;;;11.25;7.00;;;;;19.21;75.54;101568.56;5039221;28;45395;-73
2023/09/26 01:43:22;;;;;;;;;6.75;6.75;;;;;19.37;75.54;101591.09;5043285;28;49216;-74
2023/09/26 01:45:47;;;;;;;;;5.00;5.00;;;;;19.23;75.07;101562.13;5042741;28;48595;-73
2023/09/26 01:48:13;;;;;;;;;7.50;7.50;;;;;19.16;74.70;101538.16;5058244;28;45295;-73
2023/09/26 01:50:39;;;;;;;;;8.25;7.75;;;;;19.10;74.70;101528.56;5057590;28;45344;-73
2023/09/26 01:53:04;;;;;;;;;9.00;7.75;;;;;19.33;74.75;101572.41;5027217;28;45363;-73
2023/09/26 01:55:30;;;;;;;;;8.50;6.00;;;;;19.31;74.33;101571.63;5040264;28;46967;-73
2023/09/26 01:57:56;;;;;;;;;6.00;6.00;;;;;19.23;74.46;101561.25;5041472;28;45342;-73
2023/09/26 02:00:22;;;;;;;;;8.50;8.50;;;;;19.12;74.34;101551.00;5023219;28;45474;-73
2023/09/26 02:02:49;;;;;;;;;8.50;8.50;;;;;19.28;74.14;101579.91;5040987;28;45498;-73
2023/09/26 02:05:17;;;;;;;;;6.25;6.25;;;;;19.21;74.09;101569.44;5053120;28;46448;-73
2023/09/26 02:07:45;;;;;;;;;6.25;6.25;;;;;19.04;74.42;101558.66;5041355;28;45335;-73
2023/09/26 02:10:10;;;;;;;;;6.00;6.00;;;;;19.16;74.20;101576.06;5041142;28;45572;-73
2023/09/26 02:12:39;;;;;;;;;1.75;1.50;;;;;19.17;74.07;101580.53;5041253;28;45399;-73
2023/09/26 02:15:06;;;;;;;;;9.00;8.25;;;;;19.19;73.98;101595.69;5035261;28;45695;-73
2023/09/26 02:17:35;;;;;;;;;7.00;6.50;;;;;19.01;73.67;101556.13;5042366;28;45383;-73
2023/09/26 02:20:12;;;;;;;;;7.75;7.75;;;;;19.20;73.28;101585.78;5056396;28;45379;-73
2023/09/26 02:22:47;;;;;;;;;6.50;6.50;;;;;19.11;73.40;101564.63;5035826;28;45561;-73
2023/09/26 02:25:14;;;;;;;;;8.50;6.75;;;;;19.18;73.58;101587.69;5060911;28;45487;-73
2023/09/26 02:27:41;;;;;;;;;10.00;10.00;;;;;19.00;73.28;101551.69;5060963;28;45608;-73
2023/09/26 02:30:10;;;;;;;;;8.75;7.25;;;;;19.04;73.63;101555.97;5053848;28;45505;-73
2023/09/26 02:32:36;;;;;;;;;7.75;6.50;;;;;19.14;72.97;101578.84;5040801;28;45308;-73
2023/09/26 02:35:02;;;;;;;;;8.50;8.50;;;;;19.02;73.17;101561.47;5040095;28;45824;-73
2023/09/26 02:37:27;;;;;;;;;5.00;5.00;;;;;18.97;72.99;101546.44;5034574;28;45457;-73
2023/09/26 02:39:53;;;;;;;;;7.00;6.00;;;;;18.89;72.64;101538.75;5035372;28;45434;-73
2023/09/26 02:42:18;;;;;;;;;8.50;8.50;;;;;19.05;72.94;101566.72;5040660;28;45666;-73
2023/09/26 02:44:43;;;;;;;;;8.25;8.25;;;;;18.91;73.08;101538.66;5051957;28;46490;-73
2023/09/26 02:47:09;;;;;;;;;6.50;6.50;;;;;18.95;72.66;101551.94;5053389;28;45380;-73
2023/09/26 02:49:34;;;;;;;;;6.50;6.50;;;;;18.87;73.16;101527.13;5060215;28;45510;-73
2023/09/26 02:51:59;;;;;;;;;6.75;6.75;;;;;19.05;73.49;101561.28;5040082;28;45492;-73
2023/09/26 02:54:28;;;;;;;;;11.00;9.50;;;;;19.04;73.19;101556.88;5060458;28;45490;-73
2023/09/26 02:56:53;;;;;;;;;8.50;8.50;;;;;18.85;73.20;101515.53;5045851;28;45315;-73
2023/09/26 02:59:19;;;;;;;;;7.00;7.00;;;;;18.83;73.06;101517.47;5022615;28;45393;-73
2023/09/26 03:01:44;;;;;;;;;5.00;5.00;;;;;18.83;72.86;101512.03;5040233;28;45270;-73
2023/09/26 03:04:09;;;;;;;;;10.00;7.50;;;;;18.83;73.11;101515.63;5045172;28;50655;-73
2023/09/26 03:06:34;;;;;;;;;6.25;5.75;;;;;18.82;72.93;101512.97;5029314;28;45497;-73
2023/09/26 03:09:00;;;;;;;;;8.00;6.75;;;;;18.86;72.76;101506.44;5040180;28;45413;-73
2023/09/26 03:11:25;;;;;;;;;7.25;6.00;;;;;18.87;72.27;101513.63;5040069;28;46912;-73
2023/09/26 03:13:50;;;;;;;;;4.50;4.50;;;;;18.83;72.23;101504.78;5039235;28;45957;-73
2023/09/26 03:16:16;;;;;;;;;7.00;7.00;;;;;18.83;72.43;101503.94;5052906;28;47135;-73
2023/09/26 03:18:42;;;;;;;;;7.00;7.00;;;;;18.99;72.05;101525.59;5052433;28;45252;-73
2023/09/26 03:21:07;;;;;;;;;6.50;6.50;;;;;18.84;71.69;101484.91;5040055;28;45444;-73
2023/09/26 03:23:33;;;;;;;;;10.00;10.00;;;;;18.84;71.56;101487.63;5039761;28;46491;-73
2023/09/26 03:25:59;;;;;;;;;15.25;14.00;;;;;18.88;71.35;101501.84;5040049;28;45581;-73
2023/09/26 03:28:24;;;;;;;;;16.25;13.25;;;;;18.95;71.00;101521.31;5042772;28;45428;-73
2023/09/26 03:30:50;;;;;;;;;17.50;13.50;;;;;18.83;71.25;101507.50;5046740;28;45621;-73
2023/09/26 03:33:15;;;;;;;;;16.25;14.00;;;;;18.80;71.19;101499.53;5021887;28;47112;-73
2023/09/26 03:35:41;;;;;;;;;17.00;12.50;;;;;18.88;70.92;101513.53;5039005;28;45511;-73
2023/09/26 03:38:06;;;;;;;;;13.00;11.75;;;;;18.80;71.55;101501.34;5021996;28;45447;-73
2023/09/26 03:40:32;;;;;;;;;13.50;12.25;;;;;18.81;71.82;101512.09;5039789;28;45325;-73
2023/09/26 03:42:57;;;;;;;;;12.50;11.00;;;;;18.87;71.28;101527.13;5027167;28;47159;-73
2023/09/26 03:45:23;;;;;;;;;11.50;10.00;;;;;18.73;71.78;101505.34;5044290;28;45259;-73
2023/09/26 03:47:49;;;;;;;;;14.50;12.50;;;;;18.81;71.54;101508.50;5045413;28;45352;-73
2023/09/26 03:50:15;;;;;;;;;12.50;12.50;;;;;18.86;71.23;101530.78;5041449;28;45439;-73
2023/09/26 03:52:40;;;;;;;;;12.75;10.25;;;;;18.87;71.22;101536.13;5038413;28;47473;-73
2023/09/26 03:55:06;;;;;;;;;16.00;13.00;;;;;18.82;71.24;101523.78;5041149;28;45324;-73
2023/09/26 03:57:35;;;;;;;;;9.50;8.25;;;;;18.74;71.35;101507.09;5039928;28;45368;-73
2023/09/26 04:00:12;;;;;;;;;13.25;13.00;;;;;18.77;71.04;101509.63;5039148;28;45388;-73
2023/09/26 04:02:38;;;;;;;;;12.25;12.25;;;;;18.70;71.17;101501.84;5039176;28;45512;-73
2023/09/26 04:05:04;;;;;;;;;11.75;11.25;;;;;18.87;71.05;101535.25;5052729;28;45553;-73
2023/09/26 04:07:30;;;;;;;;;13.25;12.50;;;;;18.78;71.23;101514.09;5021693;28;45352;-73
2023/09/26 04:09:56;;;;;;;;;12.50;12.25;;;;;18.81;71.42;101514.81;5037736;28;45506;-73
2023/09/26 04:12:22;;;;;;;;;12.00;12.00;;;;;18.83;71.54;101521.03;5022453;28;47242;-73
2023/09/26 04:14:47;;;;;;;;;11.75;11.75;;;;;18.64;71.12;101485.09;5038929;28;45573;-73
2023/09/26 04:17:13;;;;;;;;;14.75;14.75;;;;;18.64;71.11;101485.09;5046645;28;45463;-73
2023/09/26 04:19:38;;;;;;;;;12.50;11.25;;;;;18.70;71.26;101492.88;5058481;28;52403;-73
2023/09/26 04:22:03;;;;;;;;;14.00;12.25;;;;;18.59;71.45;101479.91;5021050;28;47223;-73
2023/09/26 04:24:29;;;;;;;;;11.75;11.50;;;;;18.61;71.46;101482.53;5039012;28;45517;-73
2023/09/26 04:26:54;;;;;;;;;13.00;10.00;;;;;18.58;71.56;101474.63;5037908;28;45490;-73
2023/09/26 04:29:20;;;;;;;;;12.25;11.50;;;;;18.43;71.57;101447.47;5040749;28;45724;-73
2023/09/26 04:31:45;;;;;;;;;9.50;8.50;;;;;18.66;71.24;101485.88;5051744;28;46204;-73
2023/09/26 04:34:11;;;;;;;;;10.75;8.75;;;;;18.77;70.89;101504.22;5038847;28;45320;-73
2023/09/26 04:36:36;;;;;;;;;8.75;8.75;;;;;18.66;71.32;101494.88;5039068;28;45316;-73
2023/09/26 04:39:01;;;;;;;;;12.00;9.50;;;;;18.72;70.93;101509.00;5038603;28;53545;-73
2023/09/26 04:41:27;;;;;;;;;10.50;10.00;;;;;18.56;71.24;101476.50;5022388;28;46922;-73
2023/09/26 04:43:52;;;;;;;;;11.50;10.25;;;;;18.56;71.09;101474.69;5055912;28;45559;-73
2023/09/26 04:46:17;;;;;;;;;10.50;8.25;;;;;18.54;71.15;101478.44;5038649;28;45750;-73
2023/09/26 04:48:44;;;;;;;;;11.00;9.50;;;;;18.69;70.98;101499.22;5038672;28;45477;-73
2023/09/26 04:51:13;;;;;;;;;9.00;9.00;;;;;18.47;71.15;101469.78;5038848;28;45600;-73
2023/09/26 04:53:40;;;;;;;;;13.25;9.75;;;;;18.47;71.14;101470.66;5045624;28;45430;-73
2023/09/26 04:56:07;;;;;;;;;9.00;8.75;;;;;18.60;71.38;101497.91;5051326;28;45525;-73
2023/09/26 04:58:33;;;;;;;;;12.00;11.25;;;;;18.47;71.09;101470.66;5040156;28;45492;-73
2023/09/26 05:01:03;;;;;;;;;5.00;5.00;;;;;18.62;71.13;101500.53;5042101;28;45360;-73
2023/09/26 05:03:29;;;;;;;;;8.50;8.50;;;;;18.58;71.41;101504.38;5042462;28;45440;-73
2023/09/26 05:05:54;;;;;;;;;7.00;6.00;;;;;18.52;71.05;101497.44;5036964;28;45434;-73
2023/09/26 05:08:19;;;;;;;;;8.00;7.25;;;;;18.28;71.41;101451.00;5042099;28;45337;-73
2023/09/26 05:10:48;;;;;;;;;7.25;6.25;;;;;18.44;71.20;101478.94;5024032;28;46852;-73
2023/09/26 05:13:13;;;;;;;;;0.25;0.25;;;;;18.39;71.27;101463.91;5051733;28;45699;-73
2023/09/26 05:15:38;;;;;;;;;8.25;7.00;;;;;18.28;71.61;101451.00;5024248;28;45341;-73
2023/09/26 05:18:04;;;;;;;;;4.00;4.00;;;;;18.35;71.24;101454.25;5049024;28;45456;-73
2023/09/26 05:20:30;;;;;;;;;7.00;6.25;;;;;18.45;71.19;101480.69;5043920;28;47202;-73
2023/09/26 05:22:55;;;;;;;;;8.00;7.75;;;;;18.50;71.51;101486.72;5042870;28;45855;-73
2023/09/26 05:25:21;;;;;;;;;8.00;8.00;;;;;18.25;71.77;101443.03;5040734;28;45521;-73
2023/09/26 05:27:46;;;;;;;;;7.00;7.00;;;;;18.46;71.37;101490.53;5041925;28;45316;-73
2023/09/26 05:30:13;;;;;;;;;9.50;8.50;;;;;18.49;71.09;101486.78;5059249;28;45334;-73
2023/09/26 05:32:40;;;;;;;;;6.50;6.50;;;;;18.25;70.83;101457.41;5047185;28;45658;-73
2023/09/26 05:35:07;;;;;;;;;6.50;6.50;;;;;18.26;71.39;101458.28;5041885;28;45390;-73
2023/09/26 05:37:36;;;;;;;;;9.00;8.50;;;;;18.42;71.21;101482.69;5041765;28;45331;-73
2023/09/26 05:40:06;;;;;;;;;6.25;6.25;;;;;18.40;71.49;101484.59;5023688;28;46233;-73
2023/09/26 05:42:32;;;;;;;;;9.00;9.00;;;;;18.19;71.57;101446.91;5026012;28;45557;-73
2023/09/26 05:44:57;;;;;;;;;8.00;7.50;;;;;18.20;71.68;101447.81;5051969;28;45301;-73
2023/09/26 05:47:23;;;;;;;;;8.25;8.25;;;;;18.02;71.15;101422.66;5039638;28;45377;-70
2023/09/26 05:49:52;;;;;;;;;6.00;6.00;;;;;18.38;71.06;101475.69;5049739;28;46300;-68
2023/09/26 05:52:19;;;;;;;;;7.25;6.50;;;;;18.17;71.17;101447.97;5044066;28;45619;-68
2023/09/26 05:54:45;;;;;;;;;6.50;6.50;;;;;18.08;71.64;101446.66;5046078;28;45556;-68
2023/09/26 05:57:10;;;;;;;;;6.00;6.00;;;;;18.17;71.08;101469.59;5045335;28;45695;-69
2023/09/26 05:59:36;;;;;;;;;9.00;7.75;;;;;18.19;71.05;101476.66;5041878;28;46021;-68
2023/09/26 06:02:01;;;;;;;;;8.25;8.25;;;;;18.11;71.34;101460.00;5039081;28;46942;-68
2023/09/26 06:04:26;;;;;;;;;8.00;7.25;;;;;18.06;71.57;101452.13;5052873;28;45334;-68
2023/09/26 06:06:52;;;;;;;;;8.25;8.00;;;;;18.17;71.78;101470.47;5023345;28;45566;-68
2023/09/26 06:09:17;;;;;;;;;10.00;10.00;;;;;18.12;71.49;101475.22;5054384;28;45496;-68
2023/09/26 06:11:43;;;;;;;;;10.25;8.50;;;;;18.09;71.40;101456.47;5037455;28;45929;-68
2023/09/26 06:14:09;;;;;;;;;7.00;6.50;;;;;18.08;71.56;101447.50;5031704;28;45530;-68
2023/09/26 06:16:35;;;;;;;;;6.50;6.50;;;;;17.90;71.57;101422.31;5051875;28;45493;-68
2023/09/26 06:19:00;;;;;;;;;8.50;8.50;;;;;17.98;71.54;101445.38;5057872;28;45423;-68
2023/09/26 06:21:28;;;;;;;;;10.50;9.75;;;;;18.12;71.89;101462.59;5034829;28;45756;-68
2023/09/26 06:23:55;;;;;;;;;7.25;7.25;;;;;18.12;71.65;101449.06;5035524;28;45403;-68
2023/09/26 06:26:21;;;;;;;;;8.50;7.25;;;;;18.07;71.59;101451.16;5040790;28;45529;-68
2023/09/26 06:28:48;;;;;;;;;10.25;8.75;;;;;18.15;71.39;101477.78;5029311;28;46514;-68
2023/09/26 06:31:14;;;;;;;;;9.50;9.00;;;;;18.19;71.19;101489.28;5044977;28;45477;-68
2023/09/26 06:33:39;;;;;;;;;8.25;8.25;;;;;18.17;71.08;101491.22;5040888;28;45375;-68
2023/09/26 06:36:31;;;;;;;;;;;;;;;;;;;;;
2023/09/26 06:39:28;;;;;;;;;8.25;8.00;;;;;18.14;71.21;101476.91;5054099;28;75267;-68
2023/09/26 06:42:20;;;;;;;;;9.00;9.00;;;;;18.12;71.27;101478.78;5046994;28;45782;-68
2023/09/26 06:44:48;;;;;;;;;10.50;9.00;;;;;17.96;71.45;101458.97;5038763;28;45501;-69
2023/09/26 06:47:17;;;;;;;;;14.75;11.75;;;;;17.82;71.38;101438.03;5033911;28;45623;-71
2023/09/26 06:49:43;;;;;;;;;9.50;9.00;;;;;17.91;71.46;101455.63;5043884;28;46548;-71
2023/09/26 06:52:08;;;;;;;;;8.00;8.00;;;;;18.14;71.51;101508.44;5058654;28;45622;-71
2023/09/26 06:54:33;;;;;;;;;14.00;11.75;;;;;17.96;71.33;101465.22;5052919;28;45722;-68
2023/09/26 06:56:59;;;;;;;;;13.00;11.00;;;;;17.96;71.94;101458.97;5048230;28;45521;-68
2023/09/26 06:59:24;;;;;;;;;9.50;8.25;;;;;18.02;71.70;101461.31;5039280;28;46189;-68
2023/09/26 07:01:49;;;;;;;;;12.00;11.75;;;;;18.01;71.26;101459.59;5037910;28;45605;-68
2023/09/26 07:04:15;;;;;;;;;8.25;8.25;;;;;17.91;71.78;101443.00;5047248;28;45450;-68
2023/09/26 07:06:41;;;;;;;;;16.00;11.75;;;;;18.12;71.71;101484.19;5052490;28;45482;-68
2023/09/26 07:09:07;;;;;;;;;12.00;10.25;;;;;17.87;71.27;101440.53;5033939;28;46963;-68
2023/09/26 07:11:33;;;;;;;;;10.75;10.00;;;;;17.89;71.42;101453.00;5028620;28;45898;-68
2023/09/26 07:13:59;;;;;;;;;11.25;11.25;;;;;18.02;71.56;101477.53;5052983;28;45469;-68
2023/09/26 07:16:25;;;;;;;;;11.50;10.25;;;;;18.15;71.52;101497.56;5043368;28;45376;-68
2023/09/26 07:18:51;;;;;;;;;10.75;9.00;;;;;18.01;71.75;101465.00;5039418;28;46191;-68
2023/09/26 07:21:16;;;;;;;;;12.00;10.00;;;;;18.19;71.63;101478.47;5043599;28;45492;-68
2023/09/26 07:23:42;;;;;;;;;12.25;11.25;;;;;18.25;71.80;101497.94;5045340;28;45659;-68
2023/09/26 07:26:12;;;;;;;;;10.50;8.75;;;;;18.24;71.63;101489.91;5053415;28;45799;-68
2023/09/26 07:28:41;;;;;;;;;10.75;9.00;;;;;17.99;71.49;101447.97;5043692;28;46453;-68
2023/09/26 07:31:11;;;;;;;;;10.75;10.75;;;;;18.23;71.09;101493.59;5048927;28;45504;-68
2023/09/26 07:33:37;;;;;;;;;9.75;9.75;;;;;18.14;71.22;101486.81;5030231;28;45436;-68
2023/09/26 07:36:03;;;;;;;;;9.25;8.50;;;;;18.33;72.06;101521.88;5049839;28;45676;-68
2023/09/26 07:38:29;;;;;;;;;8.00;8.00;;;;;18.12;71.10;101480.63;5047368;28;45575;-68
2023/09/26 07:40:55;;;;;;;;;6.00;6.00;;;;;18.31;71.52;101502.19;5053834;28;45397;-69
2023/09/26 07:43:20;;;;;;;;;7.50;5.00;;;;;18.28;71.57;101491.53;5048072;28;45617;-68
2023/09/26 07:45:46;;;;;;;;;7.50;7.50;;;;;18.18;71.22;101474.91;5035584;28;45362;-68
2023/09/26 07:48:11;;;;;;;;;11.25;10.50;;;;;18.26;71.01;101490.72;5042600;28;46238;-68
2023/09/26 07:50:36;;;;;;;;;7.00;7.00;;;;;18.47;71.10;101515.75;5043827;28;45381;-68
2023/09/26 07:53:02;;;;;;;;;7.50;5.25;;;;;18.38;71.57;101500.03;5053371;28;45359;-68
2023/09/26 07:55:28;;;;;;;;;6.50;6.00;;;;;18.49;71.09;101505.72;5044424;28;45442;-68
2023/09/26 07:57:54;;;;;;;;;9.75;9.25;;;;;18.56;70.92;101517.06;5047495;28;45682;-69
2023/09/26 08:00:19;;;;;;;;;5.75;5.75;;;;;18.35;70.67;101482.13;5049414;28;45590;-68
2023/09/26 08:02:45;;;;;;;;;8.50;8.50;;;;;18.34;70.89;101474.97;5041191;28;45467;-69
2023/09/26 08:05:11;;;;;;;;;8.75;8.50;;;;;18.38;70.47;101484.66;5054021;28;45541;-68
2023/09/26 08:07:38;;;;;;;;;6.25;5.50;;;;;18.41;70.72;101489.91;5037934;28;46373;-68
2023/09/26 08:10:04;;;;;;;;;6.50;6.00;;;;;18.38;70.39;101495.47;5048194;28;45794;-68
2023/09/26 08:12:31;;;;;;;;;6.50;6.00;;;;;18.43;71.08;101485.31;5046195;28;45592;-69
2023/09/26 08:14:57;;;;;;;;;6.00;5.00;;;;;18.63;70.36;101507.69;5054712;28;45347;-69
2023/09/26 08:17:23;;;;;;;;;6.75;6.75;;;;;18.36;70.76;101458.66;5035186;28;47389;-68
2023/09/26 08:19:48;;;;;;;;;8.25;6.00;;;;;18.68;70.18;101509.19;5052176;28;45653;-69
2023/09/26 08:22:13;;;;;;;;;7.75;6.75;;;;;18.70;70.21;101514.50;5048709;28;45541;-69
2023/09/26 08:24:39;;;;;;;;;6.00;6.00;;;;;18.73;70.02;101516.16;5047434;28;45368;-69
2023/09/26 08:27:05;;;;;;;;;5.25;5.00;;;;;18.71;70.21;101518.97;5055030;28;45540;-69
2023/09/26 08:29:30;;;;;;;;;8.25;6.25;;;;;18.73;69.71;101521.56;5063498;28;45539;-69
2023/09/26 08:31:56;;;;;;;;;4.00;3.75;;;;;18.77;69.99;101515.91;5037264;28;45634;-69
2023/09/26 08:34:21;;;;;;;;;8.75;8.00;;;;;18.65;69.76;101490.41;5048846;28;45401;-69
2023/09/26 08:36:47;;;;;;;;;8.25;8.25;;;;;18.66;69.40;101491.28;5045166;28;45463;-69
2023/09/26 08:39:12;;;;;;;;;5.50;5.00;;;;;18.58;69.56;101469.22;5037601;28;45376;-69
2023/09/26 08:41:38;;;;;;;;;7.00;7.00;;;;;18.82;69.99;101502.13;5052531;28;45743;-69
2023/09/26 08:44:04;;;;;;;;;8.75;8.00;;;;;18.71;69.71;101470.28;5053894;28;45348;-68
2023/09/26 08:46:30;;;;;;;;;7.50;7.50;;;;;18.72;69.89;101477.44;5040708;28;45268;-68
2023/09/26 08:48:57;;;;;;;;;8.00;7.00;;;;;18.69;69.77;101455.97;5043372;28;45371;-69
2023/09/26 08:51:22;;;;;;;;;10.00;8.75;;;;;19.03;70.06;101500.97;5050526;28;45561;-69
2023/09/26 08:53:48;;;;;;;;;10.25;8.00;;;;;18.83;70.23;101475.03;5045252;28;45509;-69
2023/09/26 08:56:14;;;;;;;;;6.25;6.25;;;;;18.89;70.18;101476.53;5056909;28;46459;-76
2023/09/26 08:59:01;;;;;;;;;9.50;7.00;;;;;18.90;70.49;101469.31;5041825;28;45506;-75
2023/09/26 09:01:36;;;;;;;;;6.50;6.50;;;;;19.04;70.59;101488.31;5038552;28;45768;-74
2023/09/26 09:04:05;;;;;;;;;10.00;7.25;;;;;18.92;69.95;101453.84;5052907;28;45462;-79
2023/09/26 09:06:30;;;;;;;;;7.25;7.25;;;;;18.81;70.16;101430.94;5053442;28;45703;-73
2023/09/26 09:09:07;;;;;;;;;10.00;8.25;;;;;19.23;69.84;101497.16;5033683;28;46149;-69
2023/09/26 09:11:33;;;;;;;;;8.00;8.00;;;;;19.05;69.49;101469.28;5033158;28;46476;-69
2023/09/26 09:13:58;;;;;;;;;6.00;5.75;;;;;19.09;69.66;101467.28;5034419;28;46184;-69
2023/09/26 09:16:23;;;;;;;;;10.00;8.25;;;;;19.20;69.60;101477.53;5030488;28;49004;-69
2023/09/26 09:18:51;;;;;;;;;10.00;7.50;;;;;19.16;69.95;101460.59;5058959;28;45532;-69
2023/09/26 09:21:30;;;;;;;;;9.50;9.50;;;;;19.39;69.56;101486.31;5041704;28;45494;-69
2023/09/26 09:23:57;;;;;;;;;6.75;6.25;;;;;19.19;70.09;101444.16;5034895;28;45496;-69
2023/09/26 09:26:24;;;;;;;;;6.50;6.00;;;;;19.25;69.95;101461.88;5033623;28;48102;-69
2023/09/26 09:28:52;;;;;;;;;10.25;7.00;;;;;19.30;69.22;101469.75;5031642;28;45535;-69
2023/09/26 09:31:18;;;;;;;;;6.75;6.75;;;;;19.35;68.89;101471.22;5054470;28;45458;-69
2023/09/26 09:33:49;;;;;;;;;7.25;6.50;;;;;19.45;69.01;101479.69;5038588;28;45376;-69
2023/09/26 09:36:14;;;;;;;;;11.75;7.25;;;;;19.37;69.79;101455.75;5053564;28;45446;-69
2023/09/26 09:38:40;;;;;;;;;7.25;7.25;;;;;19.60;69.36;101484.19;5037796;28;45552;-70
2023/09/26 09:41:07;;;;;;;;;6.75;6.75;;;;;19.69;69.26;101493.59;5044461;28;45484;-69
2023/09/26 09:43:33;;;;;;;;;6.50;6.50;;;;;19.73;69.18;101497.91;5037018;28;45652;-69
2023/09/26 09:46:04;;;;;;;;;10.75;10.25;;;;;19.65;69.05;101474.94;5053089;28;45806;-69
2023/09/26 09:48:34;;;;;;;;;5.50;5.25;;;;;19.76;69.47;101483.31;5043573;28;45498;-69
2023/09/26 09:51:04;;;;;;;;;7.25;7.25;;;;;19.77;69.10;101483.22;5048068;28;45523;-69
2023/09/26 09:53:35;;;;;;;;;7.50;7.50;;;;;19.84;69.30;101482.88;5053287;28;45536;-69
2023/09/26 09:56:06;;;;;;;;;8.75;8.25;;;;;19.80;68.87;101458.66;5048220;28;45795;-69
2023/09/26 09:58:33;;;;;;;;;9.50;8.00;;;;;19.95;69.15;101481.25;5049452;28;45441;-69
2023/09/26 10:00:59;;;;;;;;;9.00;7.00;;;;;20.02;68.97;101478.19;5050692;28;45529;-69
2023/09/26 10:03:29;;;;;;;;;6.00;5.50;;;;;20.09;69.26;101477.72;5046331;28;45502;-69
2023/09/26 10:05:55;;;;;;;;;7.50;7.25;;;;;19.94;68.35;101447.00;5049538;28;46244;-69
2023/09/26 10:08:22;;;;;;;;;6.75;5.75;;;;;20.01;67.74;101454.75;5037658;28;46097;-69
2023/09/26 10:10:48;;;;;;;;;9.25;6.50;;;;;20.11;68.91;101469.50;5050754;28;45399;-69
2023/09/26 10:13:15;;;;;;;;;7.00;4.50;;;;;20.09;68.33;101477.72;5052502;28;45480;-69
2023/09/26 10:16:11;;;;;;;;;7.00;7.00;;;;;20.29;67.69;101506.31;5037004;28;47289;-69
2023/09/26 10:18:39;;;;;;;;;8.25;6.25;;;;;20.27;67.39;101502.81;5042128;28;45740;-70
2023/09/26 10:21:29;;;;;;;;;8.00;8.00;;;;;20.32;67.61;101491.72;5046658;28;45681;-71
2023/09/26 10:24:13;;;;;;;;;8.75;7.75;;;;;20.39;68.58;101478.66;5053255;28;45560;-69
2023/09/26 10:26:49;;;;;;;;;7.75;6.25;;;;;20.27;67.71;101451.31;5037822;28;48363;-69
2023/09/26 10:29:14;;;;;;;;;7.50;6.25;;;;;20.52;67.25;101466.06;5050219;28;45625;-69
2023/09/26 10:31:41;;;;;;;;;6.50;5.75;;;;;20.53;67.47;101460.53;5025481;28;45532;-69
2023/09/26 10:34:07;;;;;;;;;7.00;5.50;;;;;20.53;67.62;101463.25;5045162;28;45270;-69
2023/09/26 10:36:37;;;;;;;;;6.50;6.50;;;;;20.65;66.54;101480.63;5029968;28;47182;-69
2023/09/26 10:39:05;;;;;;;;;7.00;6.00;;;;;20.68;66.49;101484.97;5050684;28;45487;-69
2023/09/26 10:41:31;;;;;;;;;8.75;7.25;;;;;20.69;66.07;101475.88;5042172;28;45499;-69
2023/09/26 10:43:57;;;;;;;;;7.00;7.00;;;;;20.60;66.12;101446.56;5054609;28;46146;-69
2023/09/26 10:46:22;;;;;;;;;3.00;3.00;;;;;20.81;66.13;101455.22;5047186;28;46547;-69
2023/09/26 10:48:48;;;;;;;;;6.75;5.75;;;;;20.83;65.63;101450.56;5043938;28;45473;-69
2023/09/26 10:51:15;;;;;;;;;9.00;7.00;;;;;20.82;65.93;101440.72;5043068;28;45646;-69
2023/09/26 10:53:50;;;;;;;;;6.75;6.00;;;;;20.79;65.76;101432.75;5046328;28;45429;-69
2023/09/26 10:56:16;;;;;;;;;6.00;6.00;;;;;20.76;65.68;101420.25;5037426;28;45544;-69
2023/09/26 10:58:42;;;;;;;;;8.25;7.00;;;;;21.11;65.38;101460.50;5032678;28;45506;-69
2023/09/26 11:01:08;;;;;;;;;7.00;7.00;;;;;21.01;65.30;101434.94;5024639;28;45607;-69
2023/09/26 11:03:34;;;;;;;;;7.25;7.25;;;;;21.05;65.58;101420.22;5039986;28;45738;-69
2023/09/26 11:06:00;;;;;;;;;7.00;7.00;;;;;;;;5042062;28;46136;-69
2023/09/26 11:08:26;;;;;;;;;9.50;9.00;;;;;21.10;64.37;101418.94;5055396;28;45390;-69
2023/09/26 11:10:52;;;;;;;;;6.00;6.00;;;;;21.25;65.38;101436.03;5038001;28;45353;-69
2023/09/26 11:13:17;;;;;;;;;7.00;7.00;;;;;21.22;64.49;101410.94;5025925;28;46048;-69
2023/09/26 11:15:46;;;;;;;;;8.25;8.00;;;;;21.31;64.63;101434.75;5040425;28;48163;-69
2023/09/26 11:18:12;;;;;;;;;8.00;8.00;;;;;21.43;64.18;101433.94;5039901;28;46255;-69
2023/09/26 11:20:39;;;;;;;;;5.50;5.00;;;;;21.49;63.48;101434.53;5053498;28;45555;-69